Terminal Aerodrome Forecast
Issued by NWS Wakefield, VA

Home | Current Version | Previous Version | Text Only | Print | Product List | Glossary On
Versions: 1 2 3 4 5 6 7 8 9 10 11 12 13 14 15 16 17 18 19 20 21 22 23 24 25 26 27
122
FTUS41 KAKQ 191958 AAA
TAFSBY
TAF AMD
KSBY 191958Z 1920/2018 19009KT P6SM OVC020
     FM192100 18007KT P6SM OVC025
     FM200200 20007KT 5SM BR OVC008
     FM200700 22006KT 1SM -DZ BR OVC004
     FM201300 22008KT P6SM BKN010 WS020/24040KT
     FM201600 22012KT P6SM BKN025=

USA.gov is the U.S. government's official web portal to all federal, state and local government web resources and services.